Oscawana Lake, New York
Current Conditions -  °F | °C
As of 4:45 PM on Wednesday 28 Jan 2015 (Local Time) from KSWF Reporting Station
Clear Clear  
Wind Chill: 20°   Ceiling: Unl
Heat Index: 28°   Visibility: 20mi
Dew Point:   Wind: 9mph
Humidity: 43%   Direction: 20°NNE
Pressure: 30.13"   Gusts: NA
Location:  41.3969°N, 73.8382°W
Report Text: KSWF 282145Z 02008KT 20SM SKC M02/M13 A3013
Loading
Personal Weather Stations






























Interactive Weather Map New forecast layout! Learn more

10-Day Weather Forecast

Advertisements
Track Severe Weather on mobile